createdAt,value
2022-08-17T00:00:43.019Z,7.53
2022-08-17T00:07:26.583Z,6.95
2022-08-17T00:14:12.839Z,7.18
2022-08-17T00:20:56.721Z,7.15
2022-08-17T00:27:39.237Z,7.53
2022-08-17T00:34:21.617Z,7.20
2022-08-17T00:41:11.194Z,7.63
2022-08-17T00:47:53.556Z,8.18
2022-08-17T00:54:42.048Z,8.27
2022-08-17T01:01:25.486Z,7.53
2022-08-17T01:08:12.734Z,7.13
2022-08-17T01:14:55.065Z,7.43
2022-08-17T01:21:51.430Z,7.63
2022-08-17T01:28:54.709Z,7.20
2022-08-17T01:35:38.773Z,7.72
2022-08-17T01:42:33.031Z,7.78
2022-08-17T01:49:15.801Z,8.23
2022-08-17T01:56:02.434Z,7.25
2022-08-17T02:02:45.628Z,7.68
2022-08-17T02:09:30.456Z,7.47
2022-08-17T02:16:29.486Z,7.78
2022-08-17T02:23:24.857Z,8.52
2022-08-17T02:31:00.310Z,7.28
2022-08-17T02:37:12.095Z,9.07
2022-08-17T02:43:54.460Z,7.97
2022-08-17T02:50:37.033Z,8.80
2022-08-17T02:57:19.440Z,8.80
2022-08-17T03:04:01.805Z,8.38
2022-08-17T03:10:44.929Z,8.65
2022-08-17T03:17:27.297Z,9.35
2022-08-17T03:24:09.676Z,8.20
2022-08-17T03:30:52.839Z,10.13
2022-08-17T03:37:35.683Z,9.40
2022-08-17T03:44:18.046Z,9.15
2022-08-17T03:51:18.967Z,9.07
2022-08-17T03:58:01.343Z,9.18
2022-08-17T04:04:43.723Z,9.18
2022-08-17T04:11:26.070Z,9.23
2022-08-17T04:18:11.062Z,10.00
2022-08-17T04:24:53.519Z,10.23
2022-08-17T04:31:36.234Z,9.50
2022-08-17T04:38:26.558Z,11.25
2022-08-17T04:45:09.725Z,9.43
2022-08-17T04:51:55.682Z,10.35
2022-08-17T04:58:39.765Z,10.07
2022-08-17T05:05:24.848Z,10.07
2022-08-17T05:12:07.731Z,8.68
2022-08-17T05:18:50.691Z,10.18
2022-08-17T05:25:41.751Z,10.77
2022-08-17T05:32:37.773Z,10.88
2022-08-17T05:39:22.503Z,10.68
2022-08-17T05:46:14.689Z,11.00
2022-08-17T05:52:59.817Z,10.40
2022-08-17T05:59:48.626Z,10.98
2022-08-17T06:07:03.949Z,9.18
2022-08-17T06:14:20.974Z,9.75
2022-08-17T06:21:07.073Z,9.27
2022-08-17T06:27:55.706Z,9.27
2022-08-17T06:34:38.984Z,8.80
2022-08-17T06:42:02.560Z,8.10
2022-08-17T06:49:21.808Z,6.63
2022-08-17T06:56:13.549Z,7.30
2022-08-17T07:03:02.167Z,6.57
2022-08-17T07:09:45.961Z,6.40
2022-08-17T07:16:51.629Z,6.00
2022-08-17T07:24:07.069Z,5.70
2022-08-17T07:30:53.591Z,4.47
2022-08-17T07:37:40.547Z,4.50
2022-08-17T07:44:22.927Z,4.00
2022-08-17T07:51:22.516Z,4.10
2022-08-17T07:58:05.468Z,4.90
2022-08-17T08:05:01.027Z,4.45
2022-08-17T08:11:44.534Z,4.78
2022-08-17T08:18:55.065Z,5.07
2022-08-17T08:25:53.338Z,5.20
2022-08-17T08:32:47.918Z,4.78
2022-08-17T08:39:33.297Z,4.60
2022-08-17T08:46:30.064Z,4.60
2022-08-17T08:53:32.854Z,5.15
2022-08-17T09:00:21.540Z,5.72
2022-08-17T09:07:24.826Z,5.18
2022-08-17T09:14:31.239Z,5.32
2022-08-17T09:21:48.270Z,5.03
2022-08-17T09:28:36.318Z,5.40
2022-08-17T09:35:37.194Z,5.32
2022-08-17T09:42:54.266Z,5.53
2022-08-17T09:49:53.119Z,4.80
2022-08-17T09:56:42.301Z,5.45
2022-08-17T10:03:51.297Z,5.47
2022-08-17T10:11:05.663Z,4.95
2022-08-17T10:17:55.495Z,6.30
2022-08-17T10:25:23.227Z,6.18
2022-08-17T10:32:10.746Z,5.22
2022-08-17T10:39:19.739Z,4.70
2022-08-17T10:46:30.958Z,4.65
2022-08-17T10:53:32.543Z,3.85
2022-08-17T11:00:25.549Z,4.47
2022-08-17T11:07:25.691Z,4.32
2022-08-17T11:14:23.604Z,4.72
2022-08-17T11:21:37.574Z,4.32
2022-08-17T11:28:27.995Z,4.57
2022-08-17T11:35:24.416Z,4.28
2022-08-17T11:42:30.487Z,3.45
2022-08-17T11:49:55.598Z,3.80
2022-08-17T11:56:50.362Z,4.40
2022-08-17T12:03:33.226Z,3.63
2022-08-17T12:10:21.475Z,4.00
2022-08-17T12:17:11.287Z,3.75
2022-08-17T12:24:38.045Z,3.95
2022-08-17T12:31:28.108Z,4.65
2022-08-17T12:38:30.411Z,4.03
2022-08-17T12:45:29.706Z,4.28
2022-08-17T12:52:28.024Z,4.10
2022-08-17T12:59:10.905Z,4.72
2022-08-17T13:05:59.463Z,3.75
2022-08-17T13:12:41.899Z,3.97
2022-08-17T13:19:29.760Z,3.70
2022-08-17T13:26:32.786Z,3.90
2022-08-17T13:33:26.649Z,4.28
2022-08-17T13:40:32.492Z,3.67
2022-08-17T13:47:18.536Z,3.80
2022-08-17T13:54:05.344Z,3.97
2022-08-17T14:00:48.210Z,3.97
2022-08-17T14:07:39.091Z,3.70
2022-08-17T14:14:25.425Z,4.22
2022-08-17T14:21:09.282Z,3.47
2022-08-17T14:27:53.974Z,4.28
2022-08-17T14:34:36.628Z,3.75
2022-08-17T14:41:22.158Z,4.10
2022-08-17T14:48:07.555Z,4.93
2022-08-17T14:54:52.174Z,3.42
2022-08-17T15:01:35.338Z,3.97
2022-08-17T15:08:18.599Z,3.75
2022-08-17T15:15:04.590Z,3.80
2022-08-17T15:21:47.352Z,3.65
2022-08-17T15:28:29.706Z,3.80
2022-08-17T15:35:13.011Z,3.83
2022-08-17T15:41:58.111Z,3.35
2022-08-17T15:48:43.794Z,3.72
2022-08-17T15:55:29.675Z,3.88
2022-08-17T16:03:45.508Z,4.25
2022-08-17T16:09:28.375Z,3.95
2022-08-17T16:16:11.301Z,3.97
2022-08-17T16:22:54.996Z,3.70
2022-08-17T16:29:38.947Z,4.63
2022-08-17T16:36:23.315Z,3.90
2022-08-17T16:43:10.361Z,4.10
2022-08-17T16:49:53.318Z,4.50
2022-08-17T16:56:37.135Z,4.75
2022-08-17T17:03:22.318Z,4.40
2022-08-17T17:10:09.719Z,4.25
2022-08-17T17:17:18.196Z,4.20
2022-08-17T17:24:09.989Z,4.07
2022-08-17T17:31:13.725Z,4.22
2022-08-17T17:37:57.913Z,4.05
2022-08-17T17:44:59.940Z,4.03
2022-08-17T17:52:10.939Z,4.05
2022-08-17T17:59:13.532Z,4.40
2022-08-17T18:06:13.601Z,4.20
2022-08-17T18:13:00.402Z,4.53
2022-08-17T18:19:42.892Z,5.20
2022-08-17T18:26:53.255Z,4.60
2022-08-17T18:33:41.295Z,4.78
2022-08-17T18:40:34.038Z,4.97
2022-08-17T18:47:19.115Z,4.38
2022-08-17T18:54:09.222Z,4.53
2022-08-17T19:00:52.000Z,5.53
2022-08-17T19:07:47.999Z,6.25
2022-08-17T19:14:31.561Z,5.00
2022-08-17T19:21:25.663Z,5.28
2022-08-17T19:28:22.265Z,5.57
2022-08-17T19:35:08.209Z,5.43
2022-08-17T19:42:15.093Z,5.03
2022-08-17T19:49:22.656Z,5.40
2022-08-17T19:56:44.379Z,5.80
2022-08-17T20:03:38.403Z,5.88
2022-08-17T20:10:28.822Z,6.05
2022-08-17T20:17:12.615Z,5.88
2022-08-17T20:24:19.858Z,5.72
2022-08-17T20:31:02.877Z,6.13
2022-08-17T20:38:03.372Z,6.90
2022-08-17T20:44:47.180Z,6.65
2022-08-17T20:51:32.157Z,6.90
2022-08-17T20:58:29.943Z,8.05
2022-08-17T21:06:00.297Z,7.68
2022-08-17T21:13:23.469Z,6.80
2022-08-17T21:20:43.900Z,6.25
2022-08-17T21:27:26.206Z,6.47
2022-08-17T21:34:20.778Z,6.28
2022-08-17T21:41:03.516Z,6.30
2022-08-17T21:48:11.243Z,6.85
2022-08-17T21:54:56.953Z,7.25
2022-08-17T22:01:42.877Z,6.95
2022-08-17T22:08:25.405Z,6.63
2022-08-17T22:15:15.600Z,8.00
2022-08-17T22:22:20.567Z,7.97
2022-08-17T22:29:02.966Z,7.70
2022-08-17T22:35:47.266Z,5.05
2022-08-17T22:42:29.900Z,5.10
2022-08-17T22:49:12.361Z,4.47
2022-08-17T22:56:15.250Z,4.47
2022-08-17T23:03:25.356Z,4.60
2022-08-17T23:10:08.128Z,4.30
2022-08-17T23:16:51.685Z,4.75
2022-08-17T23:23:34.804Z,5.20
2022-08-17T23:30:17.830Z,5.82
2022-08-17T23:37:02.232Z,6.28
2022-08-17T23:43:46.857Z,7.78
2022-08-17T23:50:29.962Z,7.50
2022-08-17T23:57:19.467Z,7.72
